createdAt,value
2022-09-23T00:02:03.806Z,76.29
2022-09-23T00:04:36.035Z,76.36
2022-09-23T00:07:08.187Z,76.41
2022-09-23T00:09:40.380Z,76.51
2022-09-23T00:12:12.954Z,76.59
2022-09-23T00:14:45.091Z,76.73
2022-09-23T00:17:17.176Z,76.76
2022-09-23T00:19:49.454Z,76.88
2022-09-23T00:22:21.499Z,76.87
2022-09-23T00:24:53.695Z,77.15
2022-09-23T00:27:26.681Z,77.08
2022-09-23T00:29:58.695Z,77.15
2022-09-23T00:32:30.740Z,77.32
2022-09-23T00:35:04.255Z,77.30
2022-09-23T00:37:37.357Z,77.41
2022-09-23T00:40:13.394Z,77.47
2022-09-23T00:42:52.244Z,77.51
2022-09-23T00:45:24.908Z,77.61
2022-09-23T00:48:01.489Z,77.92
2022-09-23T00:50:35.184Z,77.98
2022-09-23T00:53:11.524Z,77.96
2022-09-23T00:55:47.651Z,78.11
2022-09-23T00:58:24.751Z,77.96
2022-09-23T01:00:59.561Z,78.21
2022-09-23T01:03:32.192Z,78.28
2022-09-23T01:06:04.790Z,78.47
2022-09-23T01:08:37.813Z,78.58
2022-09-23T01:11:30.529Z,78.80
2022-09-23T01:14:26.377Z,78.98
2022-09-23T01:17:05.219Z,78.97
2022-09-23T01:20:03.594Z,78.96
2022-09-23T01:22:43.130Z,79.02
2022-09-23T01:25:31.762Z,79.16
2022-09-23T01:28:26.676Z,79.22
2022-09-23T01:31:06.721Z,79.23
2022-09-23T01:33:48.326Z,79.30
2022-09-23T01:36:25.098Z,79.38
2022-09-23T01:39:02.327Z,79.45
2022-09-23T01:41:55.574Z,79.31
2022-09-23T01:44:36.350Z,79.17
2022-09-23T01:47:14.353Z,79.39
2022-09-23T01:49:51.945Z,79.42
2022-09-23T01:52:28.715Z,79.40
2022-09-23T01:55:05.257Z,79.31
2022-09-23T01:57:41.763Z,79.22
2022-09-23T02:00:17.718Z,79.21
2022-09-23T02:02:53.784Z,79.15
2022-09-23T02:05:30.931Z,79.10
2022-09-23T02:08:04.337Z,79.10
2022-09-23T02:10:42.173Z,79.08
2022-09-23T02:13:20.621Z,79.12
2022-09-23T02:15:56.312Z,78.99
2022-09-23T02:18:32.747Z,79.02
2022-09-23T02:21:09.926Z,78.93
2022-09-23T02:23:47.082Z,78.95
2022-09-23T02:26:23.998Z,78.93
2022-09-23T02:29:02.545Z,79.01
2022-09-23T02:31:41.168Z,78.94
2022-09-23T02:34:22.231Z,79.05
2022-09-23T02:37:06.705Z,79.08
2022-09-23T02:39:49.426Z,79.07
2022-09-23T02:42:26.198Z,79.13
2022-09-23T02:44:56.741Z,78.96
2022-09-23T02:47:33.557Z,79.06
2022-09-23T02:50:06.863Z,79.16
2022-09-23T02:52:39.168Z,79.18
2022-09-23T02:55:16.115Z,79.32
2022-09-23T02:57:46.995Z,79.29
2022-09-23T03:00:19.501Z,79.35
2022-09-23T03:03:17.349Z,79.26
2022-09-23T03:05:55.519Z,79.32
2022-09-23T03:08:43.044Z,79.27
2022-09-23T03:11:17.643Z,79.47
2022-09-23T03:14:06.765Z,79.70
2022-09-23T03:16:46.498Z,79.79
2022-09-23T03:19:28.681Z,79.97
2022-09-23T03:22:07.231Z,79.96
2022-09-23T03:24:42.944Z,79.80
2022-09-23T03:27:19.665Z,79.87
2022-09-23T03:29:54.593Z,79.98
2022-09-23T03:32:30.163Z,79.95
2022-09-23T03:35:04.909Z,80.17
2022-09-23T03:37:41.288Z,80.13
2022-09-23T03:40:19.463Z,79.94
2022-09-23T03:42:53.490Z,79.96
2022-09-23T03:45:35.475Z,80.02
2022-09-23T03:48:07.969Z,80.12
2022-09-23T03:50:40.188Z,80.14
2022-09-23T03:53:14.380Z,80.02
2022-09-23T03:55:47.259Z,80.11
2022-09-23T03:58:19.292Z,79.99
2022-09-23T04:00:54.823Z,80.15
2022-09-23T04:03:28.252Z,80.13
2022-09-23T04:06:00.281Z,80.09
2022-09-23T04:08:32.362Z,80.10
2022-09-23T04:11:05.501Z,80.11
2022-09-23T04:13:37.851Z,80.07
2022-09-23T04:16:10.233Z,79.99
2022-09-23T04:18:42.355Z,79.92
2022-09-23T04:21:14.531Z,79.76
2022-09-23T04:23:47.185Z,79.75
2022-09-23T04:26:19.448Z,79.81
2022-09-23T04:28:51.518Z,79.81
2022-09-23T04:31:23.957Z,79.62
2022-09-23T04:33:57.175Z,79.89
2022-09-23T04:36:30.445Z,79.58
2022-09-23T04:39:03.821Z,79.55
2022-09-23T04:41:36.789Z,79.68
2022-09-23T04:44:09.103Z,79.74
2022-09-23T04:46:41.685Z,79.86
2022-09-23T04:49:14.252Z,79.71
2022-09-23T04:51:46.332Z,79.69
2022-09-23T04:54:19.078Z,79.82
2022-09-23T04:56:51.089Z,79.80
2022-09-23T04:59:23.853Z,79.71
2022-09-23T05:01:56.039Z,79.77
2022-09-23T05:04:28.089Z,79.95
2022-09-23T05:07:03.240Z,80.02
2022-09-23T05:09:35.881Z,79.76
2022-09-23T05:12:08.639Z,79.72
2022-09-23T05:14:40.672Z,80.07
2022-09-23T05:17:13.052Z,79.87
2022-09-23T05:19:45.137Z,80.12
2022-09-23T05:22:17.148Z,79.94
2022-09-23T05:24:49.197Z,79.81
2022-09-23T05:27:21.402Z,79.83
2022-09-23T05:29:53.383Z,79.68
2022-09-23T05:32:26.458Z,79.44
2022-09-23T05:34:58.924Z,79.49
2022-09-23T05:37:33.210Z,79.48
2022-09-23T05:40:06.075Z,79.33
2022-09-23T05:42:38.278Z,79.36
2022-09-23T05:45:11.455Z,79.13
2022-09-23T05:47:44.109Z,78.76
2022-09-23T05:50:16.575Z,78.26
2022-09-23T05:52:48.650Z,77.44
2022-09-23T05:55:20.794Z,76.35
2022-09-23T05:57:52.835Z,75.93
2022-09-23T06:00:26.106Z,75.72
2022-09-23T06:02:58.368Z,75.57
2022-09-23T06:05:31.576Z,75.41
2022-09-23T06:08:04.046Z,75.11
2022-09-23T06:10:39.541Z,75.00
2022-09-23T06:13:12.915Z,74.22
2022-09-23T06:15:45.859Z,73.96
2022-09-23T06:18:18.718Z,72.86
2022-09-23T06:20:51.070Z,72.45
2022-09-23T06:23:26.343Z,71.88
2022-09-23T06:26:03.061Z,71.92
2022-09-23T06:28:36.623Z,71.26
2022-09-23T06:31:13.613Z,70.26
2022-09-23T06:33:53.001Z,69.56
2022-09-23T06:36:40.642Z,68.69
2022-09-23T06:39:16.558Z,68.00
2022-09-23T06:41:48.615Z,67.53
2022-09-23T06:44:21.376Z,67.11
2022-09-23T06:46:53.549Z,66.28
2022-09-23T06:49:26.691Z,64.24
2022-09-23T06:51:58.750Z,63.61
2022-09-23T06:54:31.514Z,62.43
2022-09-23T06:57:03.760Z,60.32
2022-09-23T06:59:36.005Z,58.13
2022-09-23T07:02:08.811Z,56.67
2022-09-23T07:04:41.394Z,55.32
2022-09-23T07:07:14.260Z,54.60
2022-09-23T07:09:46.444Z,52.79
2022-09-23T07:12:18.676Z,50.60
2022-09-23T07:14:51.057Z,49.17
2022-09-23T07:17:24.317Z,48.67
2022-09-23T07:19:56.392Z,47.80
2022-09-23T07:22:28.866Z,46.92
2022-09-23T07:25:00.935Z,46.78
2022-09-23T07:27:33.566Z,46.62
2022-09-23T07:30:08.704Z,44.91
2022-09-23T07:32:48.670Z,44.28
2022-09-23T07:35:21.554Z,43.86
2022-09-23T07:37:54.277Z,42.62
2022-09-23T07:40:26.571Z,41.95
2022-09-23T07:42:59.695Z,41.29
2022-09-23T07:45:33.139Z,40.99
2022-09-23T07:48:05.836Z,40.94
2022-09-23T07:50:40.088Z,40.23
2022-09-23T07:53:13.670Z,39.69
2022-09-23T07:55:52.459Z,39.22
2022-09-23T07:58:25.758Z,38.89
2022-09-23T08:01:02.650Z,38.47
2022-09-23T08:03:35.232Z,38.08
2022-09-23T08:06:10.361Z,37.69
2022-09-23T08:08:44.632Z,37.90
2022-09-23T08:11:16.761Z,38.17
2022-09-23T08:13:48.914Z,38.70
2022-09-23T08:16:21.379Z,38.11
2022-09-23T08:18:53.755Z,37.45
2022-09-23T08:21:26.015Z,36.86
2022-09-23T08:23:58.690Z,37.12
2022-09-23T08:26:34.387Z,37.05
2022-09-23T08:29:09.881Z,36.39
2022-09-23T08:31:42.291Z,36.38
2022-09-23T08:34:14.976Z,36.02
2022-09-23T08:36:48.214Z,35.91
2022-09-23T08:39:22.998Z,35.30
2022-09-23T08:42:08.743Z,35.50
2022-09-23T08:44:49.416Z,35.62
2022-09-23T08:47:26.089Z,35.64
2022-09-23T08:50:04.199Z,34.49
2022-09-23T08:52:41.194Z,34.99
2022-09-23T08:55:16.055Z,35.76
2022-09-23T08:58:23.843Z,36.29
2022-09-23T09:01:04.384Z,35.06
2022-09-23T09:03:41.903Z,35.66
2022-09-23T09:06:20.015Z,36.03
2022-09-23T09:08:58.229Z,35.66
2022-09-23T09:11:36.928Z,36.07
2022-09-23T09:14:18.894Z,35.75
2022-09-23T09:17:00.649Z,34.81
2022-09-23T09:19:56.598Z,35.10
2022-09-23T09:22:51.015Z,35.77
2022-09-23T09:25:33.506Z,36.39
2022-09-23T09:28:15.878Z,36.98
2022-09-23T09:30:54.223Z,37.77
2022-09-23T09:33:32.401Z,38.79
2022-09-23T09:36:14.464Z,38.72
2022-09-23T09:38:46.470Z,37.08
2022-09-23T09:41:24.784Z,36.64
2022-09-23T09:43:59.418Z,37.02
2022-09-23T09:46:48.111Z,37.58
2022-09-23T09:49:30.232Z,37.82
2022-09-23T09:52:24.196Z,36.75
2022-09-23T09:55:00.661Z,36.20
2022-09-23T09:57:39.811Z,35.04
2022-09-23T10:00:43.082Z,34.22
2022-09-23T10:03:31.665Z,34.77
2022-09-23T10:06:17.459Z,34.90
2022-09-23T10:09:14.783Z,34.74
2022-09-23T10:12:11.607Z,34.68
2022-09-23T10:14:44.087Z,34.49
2022-09-23T10:17:21.382Z,34.24
2022-09-23T10:20:00.968Z,34.54
2022-09-23T10:22:37.477Z,34.43
2022-09-23T10:25:17.772Z,34.50
2022-09-23T10:27:49.921Z,33.71
2022-09-23T10:30:27.284Z,33.54
2022-09-23T10:32:59.506Z,34.83
2022-09-23T10:35:33.665Z,35.24
2022-09-23T10:38:05.926Z,34.46
2022-09-23T10:40:58.648Z,34.40
2022-09-23T10:43:59.874Z,34.70
2022-09-23T10:46:41.255Z,35.33
2022-09-23T10:49:56.982Z,35.52
2022-09-23T10:52:58.127Z,35.62
2022-09-23T10:55:45.084Z,35.98
2022-09-23T10:58:33.263Z,35.80
2022-09-23T11:01:17.184Z,35.11
2022-09-23T11:04:06.777Z,34.91
2022-09-23T11:06:54.050Z,35.72
2022-09-23T11:09:34.772Z,35.79
2022-09-23T11:12:18.882Z,35.86
2022-09-23T11:15:19.204Z,36.26
2022-09-23T11:18:18.911Z,35.37
2022-09-23T11:21:00.782Z,34.43
2022-09-23T11:23:48.477Z,34.59
2022-09-23T11:26:33.309Z,34.71
2022-09-23T11:29:42.692Z,35.21
2022-09-23T11:32:35.727Z,35.79
2022-09-23T11:35:19.483Z,36.36
2022-09-23T11:37:55.105Z,36.29
2022-09-23T11:40:33.719Z,36.49
2022-09-23T11:43:16.071Z,36.49
2022-09-23T11:45:53.098Z,36.02
2022-09-23T11:48:31.490Z,36.53
2022-09-23T11:51:08.190Z,36.54
2022-09-23T11:53:48.821Z,36.75
2022-09-23T11:56:35.066Z,35.85
2022-09-23T11:59:17.473Z,35.83
2022-09-23T12:01:55.099Z,35.69
2022-09-23T12:04:35.733Z,35.31
2022-09-23T12:07:14.969Z,35.45
2022-09-23T12:10:03.631Z,35.94
2022-09-23T12:12:42.966Z,36.13
2022-09-23T12:15:28.090Z,36.61
2022-09-23T12:18:23.593Z,37.09
2022-09-23T12:21:38.688Z,37.84
2022-09-23T12:24:27.982Z,38.52
2022-09-23T12:27:05.723Z,38.14
2022-09-23T12:29:41.050Z,37.99
2022-09-23T12:32:20.321Z,37.76
2022-09-23T12:34:53.924Z,38.28
2022-09-23T12:37:29.793Z,38.15
2022-09-23T12:40:19.146Z,37.88
2022-09-23T12:42:52.168Z,38.04
2022-09-23T12:45:41.763Z,37.91
2022-09-23T12:49:02.133Z,37.31
2022-09-23T12:51:35.677Z,37.56
2022-09-23T12:54:25.545Z,37.69
2022-09-23T12:57:05.540Z,38.07
2022-09-23T13:00:16.298Z,38.16
2022-09-23T13:03:17.253Z,38.19
2022-09-23T13:06:10.367Z,38.36
2022-09-23T13:08:44.039Z,38.63
2022-09-23T13:11:24.408Z,38.53
2022-09-23T13:14:00.703Z,38.66
2022-09-23T13:16:35.849Z,39.06
2022-09-23T13:19:28.445Z,39.08
2022-09-23T13:22:09.290Z,39.45
2022-09-23T13:24:45.621Z,39.77
2022-09-23T13:27:24.005Z,40.26
2022-09-23T13:30:00.028Z,40.50
2022-09-23T13:32:35.615Z,40.70
2022-09-23T13:35:17.958Z,41.07
2022-09-23T13:37:51.090Z,41.42
2022-09-23T13:40:28.614Z,41.59
2022-09-23T13:43:03.330Z,41.75
2022-09-23T13:45:43.371Z,41.94
2022-09-23T13:48:17.662Z,42.27
2022-09-23T13:50:53.431Z,42.42
2022-09-23T13:53:29.070Z,42.50
2022-09-23T13:56:07.342Z,42.79
2022-09-23T13:58:39.620Z,43.11
2022-09-23T14:01:22.545Z,43.23
2022-09-23T14:03:54.714Z,43.67
2022-09-23T14:06:28.400Z,43.62
2022-09-23T14:09:02.636Z,43.73
2022-09-23T14:11:37.424Z,43.65
2022-09-23T14:14:14.668Z,43.82
2022-09-23T14:16:49.761Z,44.08
2022-09-23T14:19:24.486Z,44.14
2022-09-23T14:21:57.662Z,44.48
2022-09-23T14:24:35.899Z,44.71
2022-09-23T14:27:33.814Z,44.84
2022-09-23T14:30:20.539Z,45.13
2022-09-23T14:32:53.831Z,45.46
2022-09-23T14:35:29.760Z,45.55
2022-09-23T14:38:19.335Z,45.63
2022-09-23T14:41:15.605Z,45.88
2022-09-23T14:43:53.067Z,45.58
2022-09-23T14:46:27.511Z,45.43
2022-09-23T14:49:05.797Z,45.54
2022-09-23T14:51:53.844Z,45.41
2022-09-23T14:54:45.220Z,45.32
2022-09-23T14:57:37.190Z,45.36
2022-09-23T15:00:18.663Z,44.93
2022-09-23T15:03:02.052Z,44.89
2022-09-23T15:05:45.693Z,44.97
2022-09-23T15:08:22.172Z,45.04
2022-09-23T15:10:55.219Z,45.14
2022-09-23T15:13:31.550Z,45.35
2022-09-23T15:16:05.754Z,45.42
2022-09-23T15:18:41.341Z,45.59
2022-09-23T15:21:16.535Z,45.73
2022-09-23T15:23:51.353Z,46.16
2022-09-23T15:26:25.877Z,46.26
2022-09-23T15:29:00.049Z,46.40
2022-09-23T15:31:33.105Z,46.58
2022-09-23T15:34:06.206Z,46.79
2022-09-23T15:36:38.787Z,46.95
2022-09-23T15:39:14.612Z,47.27
2022-09-23T15:41:47.319Z,47.45
2022-09-23T15:44:21.819Z,47.78
2022-09-23T15:46:56.039Z,47.90
2022-09-23T15:49:33.501Z,48.18
2022-09-23T15:52:09.801Z,48.27
2022-09-23T15:54:42.499Z,48.36
2022-09-23T15:57:14.661Z,48.56
2022-09-23T15:59:46.991Z,48.71
2022-09-23T16:02:25.007Z,48.90
2022-09-23T16:04:57.376Z,49.14
2022-09-23T16:07:29.782Z,49.26
2022-09-23T16:10:01.953Z,49.68
2022-09-23T16:12:34.734Z,49.90
2022-09-23T16:15:12.197Z,50.15
2022-09-23T16:17:45.524Z,50.43
2022-09-23T16:20:18.857Z,50.65
2022-09-23T16:22:57.532Z,50.80
2022-09-23T16:25:32.025Z,51.07
2022-09-23T16:28:05.150Z,51.16
2022-09-23T16:30:37.897Z,51.36
2022-09-23T16:33:10.055Z,51.56
2022-09-23T16:35:42.391Z,51.74
2022-09-23T16:38:14.821Z,52.01
2022-09-23T16:40:47.409Z,52.22
2022-09-23T16:43:19.974Z,52.20
2022-09-23T16:45:52.227Z,52.33
2022-09-23T16:48:24.914Z,52.53
2022-09-23T16:50:57.038Z,52.62
2022-09-23T16:53:31.703Z,52.82
2022-09-23T16:56:09.504Z,52.96
2022-09-23T16:58:42.643Z,53.13
2022-09-23T17:01:36.368Z,53.23
2022-09-23T17:04:10.708Z,53.26
2022-09-23T17:06:50.364Z,53.47
2022-09-23T17:09:29.278Z,53.62
2022-09-23T17:12:12.543Z,53.60
2022-09-23T17:14:44.732Z,53.88
2022-09-23T17:17:17.058Z,54.08
2022-09-23T17:19:49.504Z,54.24
2022-09-23T17:22:21.640Z,54.25
2022-09-23T17:24:53.720Z,54.56
2022-09-23T17:27:26.080Z,54.72
2022-09-23T17:29:58.264Z,54.76
2022-09-23T17:32:30.846Z,54.89
2022-09-23T17:35:04.885Z,54.82
2022-09-23T17:37:37.118Z,55.01
2022-09-23T17:40:11.070Z,55.13
2022-09-23T17:42:44.763Z,55.20
2022-09-23T17:45:17.380Z,55.23
2022-09-23T17:47:52.428Z,55.37
2022-09-23T17:50:24.515Z,55.42
2022-09-23T17:52:56.988Z,55.45
2022-09-23T17:55:29.183Z,55.45
2022-09-23T17:58:01.682Z,55.45
2022-09-23T18:00:34.020Z,55.47
2022-09-23T18:03:06.639Z,55.54
2022-09-23T18:05:38.779Z,55.42
2022-09-23T18:08:10.852Z,55.58
2022-09-23T18:10:42.939Z,55.66
2022-09-23T18:13:15.180Z,55.67
2022-09-23T18:15:47.331Z,55.74
2022-09-23T18:18:19.850Z,55.77
2022-09-23T18:20:51.923Z,55.57
2022-09-23T18:23:26.074Z,55.74
2022-09-23T18:25:58.500Z,55.94
2022-09-23T18:28:34.989Z,56.09
2022-09-23T18:31:07.647Z,56.28
2022-09-23T18:33:40.284Z,56.29
2022-09-23T18:36:14.355Z,56.35
2022-09-23T18:38:47.285Z,56.30
2022-09-23T18:41:20.104Z,56.26
2022-09-23T18:43:53.284Z,56.36
2022-09-23T18:46:29.499Z,56.41
2022-09-23T18:49:19.683Z,56.50
2022-09-23T18:51:55.772Z,56.85
2022-09-23T18:54:31.609Z,56.96
2022-09-23T18:57:03.655Z,57.01
2022-09-23T18:59:36.273Z,57.19
2022-09-23T19:02:09.574Z,57.40
2022-09-23T19:04:41.795Z,57.66
2022-09-23T19:07:15.434Z,57.70
2022-09-23T19:09:47.827Z,58.19
2022-09-23T19:12:22.211Z,58.06
2022-09-23T19:14:54.929Z,58.33
2022-09-23T19:17:27.081Z,58.43
2022-09-23T19:19:59.219Z,58.36
2022-09-23T19:22:32.914Z,58.53
2022-09-23T19:25:05.436Z,58.54
2022-09-23T19:27:39.349Z,58.75
2022-09-23T19:30:13.728Z,58.61
2022-09-23T19:32:49.050Z,58.75
2022-09-23T19:35:21.774Z,58.84
2022-09-23T19:37:57.688Z,58.96
2022-09-23T19:40:30.774Z,59.15
2022-09-23T19:43:04.630Z,59.28
2022-09-23T19:45:38.597Z,59.32
2022-09-23T19:48:10.757Z,59.34
2022-09-23T19:50:43.132Z,59.63
2022-09-23T19:53:15.556Z,59.65
2022-09-23T19:55:49.690Z,59.73
2022-09-23T19:58:22.156Z,59.85
2022-09-23T20:00:54.360Z,59.93
2022-09-23T20:03:27.250Z,59.91
2022-09-23T20:06:00.063Z,59.92
2022-09-23T20:08:32.108Z,60.09
2022-09-23T20:11:11.661Z,60.10
2022-09-23T20:13:47.213Z,60.22
2022-09-23T20:16:21.031Z,60.21
2022-09-23T20:18:55.818Z,60.29
2022-09-23T20:21:29.425Z,60.21
2022-09-23T20:24:02.023Z,60.40
2022-09-23T20:26:51.701Z,60.44
2022-09-23T20:29:24.658Z,60.65
2022-09-23T20:31:58.714Z,60.75
2022-09-23T20:34:33.884Z,60.82
2022-09-23T20:37:06.174Z,60.80
2022-09-23T20:39:38.494Z,60.94
2022-09-23T20:42:10.528Z,61.10
2022-09-23T20:44:43.320Z,61.25
2022-09-23T20:47:17.054Z,61.51
2022-09-23T20:49:49.891Z,61.58
2022-09-23T20:52:23.026Z,61.66
2022-09-23T20:54:55.119Z,61.85
2022-09-23T20:57:29.517Z,61.89
2022-09-23T21:00:02.140Z,62.11
2022-09-23T21:02:34.527Z,62.21
2022-09-23T21:05:08.059Z,62.12
2022-09-23T21:07:40.283Z,62.32
2022-09-23T21:10:13.256Z,62.51
2022-09-23T21:12:46.175Z,62.72
2022-09-23T21:15:18.271Z,62.84
2022-09-23T21:17:50.338Z,63.00
2022-09-23T21:20:22.500Z,63.04
2022-09-23T21:22:55.384Z,63.32
2022-09-23T21:25:29.077Z,63.38
2022-09-23T21:28:02.391Z,63.62
2022-09-23T21:30:35.157Z,63.58
2022-09-23T21:33:07.503Z,63.66
2022-09-23T21:35:40.497Z,63.92
2022-09-23T21:38:12.588Z,63.96
2022-09-23T21:40:56.971Z,64.06
2022-09-23T21:43:33.713Z,64.29
2022-09-23T21:46:07.838Z,64.44
2022-09-23T21:48:41.975Z,64.59
2022-09-23T21:51:16.895Z,64.63
2022-09-23T21:53:50.222Z,64.96
2022-09-23T21:56:24.786Z,65.06
2022-09-23T21:58:58.350Z,65.19
2022-09-23T22:01:33.788Z,65.44
2022-09-23T22:04:10.534Z,65.64
2022-09-23T22:06:43.338Z,65.85
2022-09-23T22:09:17.554Z,65.96
2022-09-23T22:12:11.261Z,66.18
2022-09-23T22:14:43.590Z,66.30
2022-09-23T22:17:15.837Z,66.47
2022-09-23T22:19:47.887Z,66.38
2022-09-23T22:22:20.690Z,66.61
2022-09-23T22:24:53.192Z,66.78
2022-09-23T22:27:27.332Z,66.81
2022-09-23T22:30:17.015Z,66.87
2022-09-23T22:32:54.949Z,67.15
2022-09-23T22:35:27.355Z,67.34
2022-09-23T22:38:01.140Z,67.21
2022-09-23T22:40:33.312Z,67.19
2022-09-23T22:43:05.556Z,67.40
2022-09-23T22:45:37.730Z,67.41
2022-09-23T22:48:10.119Z,67.45
2022-09-23T22:50:43.062Z,67.52
2022-09-23T22:53:15.107Z,67.70
2022-09-23T22:55:57.671Z,67.76
2022-09-23T22:58:32.495Z,67.88
2022-09-23T23:01:05.549Z,67.92
2022-09-23T23:03:37.765Z,67.84
2022-09-23T23:06:11.287Z,68.05
2022-09-23T23:08:43.343Z,68.07
2022-09-23T23:11:15.502Z,68.19
2022-09-23T23:13:47.599Z,68.19
2022-09-23T23:16:21.526Z,68.28
2022-09-23T23:18:53.971Z,68.54
2022-09-23T23:21:26.312Z,68.41
2022-09-23T23:23:58.367Z,68.53
2022-09-23T23:26:32.118Z,68.66
2022-09-23T23:29:04.680Z,68.68
2022-09-23T23:31:36.842Z,68.54
2022-09-23T23:34:11.962Z,68.55
2022-09-23T23:36:44.361Z,68.78
2022-09-23T23:39:17.051Z,68.77
2022-09-23T23:41:49.419Z,68.82
2022-09-23T23:44:21.530Z,68.79
2022-09-23T23:46:53.769Z,68.95
2022-09-23T23:49:28.744Z,69.00
2022-09-23T23:52:00.806Z,69.17
2022-09-23T23:54:33.412Z,69.10
2022-09-23T23:57:05.461Z,69.26
2022-09-23T23:59:37.750Z,69.25
